Terminal Aerodrome Forecast
Issued by NWS Flagstaff, AZ

Home | Current Version | Previous Version | Text Only | Print | Product List | Glossary On
Versions: 1 2 3 4 5 6 7 8 9 10 11 12 13 14 15 16 17 18 19 20 21 22
000
FTUS45 KFGZ 032300
TAFINW
TAF
KINW 032333Z 0400/0424 25011G18KT P6SM SCT070 BKN080
     FM040300 VRB05KT P6SM SCT080
     FM042000 33010G15KT P6SM FEW080=

USA.gov is the U.S. government's official web portal to all federal, state and local government web resources and services.